Time;durP1;ratioP1;P1;durP2;ratioP2;P2;SDS_P1;SDS_P2;PMS_P1;PMS_P2;Temp;Humidity;BMP_temperature;BMP_pressure;BME280_temperature;BME280_humidity;BME280_pressure;Samples;Min_cycle;Max_cycle;Signal;HPM_P1;HPM_P2
2022/07/19 00:01:45;;;;;;;12.73;4.40;;;21.50;72.40;;;;;;5032502;28;20096;-43
2022/07/19 00:04:14;;;;;;;6.75;3.80;;;21.40;72.60;;;;;;5014358;28;20410;-44
2022/07/19 00:06:40;;;;;;;7.40;4.00;;;21.40;72.40;;;;;;5013561;28;20136;-43
2022/07/19 00:09:08;;;;;;;6.55;4.20;;;21.40;72.50;;;;;;5013178;28;20077;-43
2022/07/19 00:11:34;;;;;;;13.48;4.35;;;21.30;72.50;;;;;;5019947;28;20050;-42
2022/07/19 00:14:01;;;;;;;6.70;4.28;;;21.30;72.80;;;;;;5013722;28;20482;-44
2022/07/19 00:16:28;;;;;;;8.57;3.92;;;21.30;73.30;;;;;;5013337;28;20108;-43
2022/07/19 00:18:55;;;;;;;5.95;4.30;;;21.20;73.40;;;;;;5012848;28;20050;-43
2022/07/19 00:21:23;;;;;;;8.75;4.45;;;21.20;73.80;;;;;;5008471;28;20088;-43
2022/07/19 00:23:49;;;;;;;8.23;4.38;;;21.20;73.40;;;;;;5014145;28;20133;-43
2022/07/19 00:26:16;;;;;;;8.90;4.40;;;21.20;73.40;;;;;;5012810;28;20093;-43
2022/07/19 00:28:43;;;;;;;9.02;4.68;;;21.10;73.60;;;;;;5012766;28;20128;-43
2022/07/19 00:31:10;;;;;;;8.70;3.80;;;21.10;73.90;;;;;;5013558;28;20078;-43
2022/07/19 00:33:39;;;;;;;7.47;4.10;;;21.00;73.60;;;;;;5012885;28;20092;-43
2022/07/19 00:36:06;;;;;;;7.88;4.20;;;21.00;73.70;;;;;;5014084;28;20137;-43
2022/07/19 00:38:35;;;;;;;4.90;3.92;;;21.00;74.00;;;;;;5030427;28;20057;-43
2022/07/19 00:41:02;;;;;;;7.80;4.75;;;21.00;74.20;;;;;;5014632;28;20052;-41
2022/07/19 00:43:29;;;;;;;8.63;4.07;;;20.90;74.30;;;;;;5012537;28;20060;-43
2022/07/19 00:45:55;;;;;;;6.55;3.92;;;20.90;74.30;;;;;;5012109;28;20550;-42
2022/07/19 00:48:22;;;;;;;8.38;3.83;;;20.80;74.00;;;;;;5011297;28;20462;-43
2022/07/19 00:50:49;;;;;;;6.43;4.25;;;20.80;74.00;;;;;;5016469;28;20077;-43
2022/07/19 00:53:16;;;;;;;11.45;4.20;;;20.80;74.30;;;;;;5013274;28;20116;-43
2022/07/19 00:55:45;;;;;;;8.63;4.55;;;20.70;74.80;;;;;;5013107;28;20054;-43
2022/07/19 00:58:13;;;;;;;6.22;3.70;;;20.70;75.00;;;;;;5017302;28;20133;-43
2022/07/19 01:00:40;;;;;;;7.47;4.20;;;20.70;75.20;;;;;;5013366;28;20119;-43
2022/07/19 01:03:07;;;;;;;10.00;4.25;;;20.60;75.10;;;;;;5011849;28;20088;-43
2022/07/19 01:05:34;;;;;;;6.82;4.18;;;20.60;75.00;;;;;;5012385;28;20060;-42
2022/07/19 01:08:01;;;;;;;10.20;4.45;;;20.60;75.00;;;;;;5009489;28;20049;-42
2022/07/19 01:10:28;;;;;;;6.97;4.20;;;20.50;75.40;;;;;;5011682;28;20141;-42
2022/07/19 01:12:56;;;;;;;7.20;4.57;;;20.50;75.60;;;;;;5011654;28;20121;-43
2022/07/19 01:15:25;;;;;;;7.22;3.95;;;20.50;75.70;;;;;;5013140;28;20133;-43
2022/07/19 01:17:51;;;;;;;7.05;4.30;;;20.50;75.60;;;;;;5012961;28;20053;-45
2022/07/19 01:20:18;;;;;;;5.18;3.63;;;20.40;75.20;;;;;;5008683;28;20073;-43
2022/07/19 01:22:47;;;;;;;8.75;4.22;;;20.40;75.30;;;;;;5009967;28;20148;-42
2022/07/19 01:25:13;;;;;;;8.15;4.20;;;20.40;75.60;;;;;;5013060;28;20077;-43
2022/07/19 01:27:40;;;;;;;10.10;4.60;;;20.30;75.50;;;;;;5011052;28;20552;-43
2022/07/19 01:30:12;;;;;;;8.10;3.80;;;20.30;75.90;;;;;;5012558;28;20390;-44
2022/07/19 01:32:39;;;;;;;8.93;4.25;;;20.30;75.80;;;;;;5011626;28;20050;-43
2022/07/19 01:35:07;;;;;;;5.53;3.90;;;20.30;75.70;;;;;;5012564;28;20092;-43
2022/07/19 01:37:34;;;;;;;6.55;3.97;;;20.20;75.80;;;;;;5011253;28;20054;-43
2022/07/19 01:40:02;;;;;;;9.65;4.35;;;20.20;76.10;;;;;;5010915;28;21581;-43
2022/07/19 01:42:29;;;;;;;6.43;3.95;;;20.10;76.20;;;;;;5012885;28;20049;-43
2022/07/19 01:44:56;;;;;;;8.25;3.97;;;20.10;75.80;;;;;;5023142;28;20137;-43
2022/07/19 01:47:23;;;;;;;9.50;4.78;;;20.10;76.50;;;;;;5009994;28;20461;-42
2022/07/19 01:49:51;;;;;;;7.63;4.47;;;20.10;77.50;;;;;;5011578;28;20117;-43
2022/07/19 01:52:18;;;;;;;7.18;4.28;;;20.00;76.90;;;;;;5012090;28;20137;-43
2022/07/19 01:54:44;;;;;;;6.65;4.05;;;20.00;76.80;;;;;;5016510;28;20053;-43
2022/07/19 01:57:13;;;;;;;9.70;4.53;;;20.00;76.80;;;;;;5012212;28;20120;-42
2022/07/19 01:59:39;;;;;;;7.50;4.75;;;19.90;76.90;;;;;;5009436;28;20050;-42
2022/07/19 02:02:07;;;;;;;8.52;4.82;;;19.90;76.90;;;;;;5010897;28;20056;-42
2022/07/19 02:04:33;;;;;;;6.35;4.32;;;19.90;76.80;;;;;;5009671;28;20054;-42
2022/07/19 02:07:00;;;;;;;10.55;4.68;;;19.90;76.60;;;;;;5026324;28;20116;-42
2022/07/19 02:09:27;;;;;;;7.40;4.50;;;19.80;76.90;;;;;;5008168;28;20119;-42
2022/07/19 02:11:53;;;;;;;6.78;3.63;;;19.80;77.00;;;;;;5018210;28;20141;-43
2022/07/19 02:14:22;;;;;;;6.35;4.03;;;19.80;76.90;;;;;;5010076;28;20126;-42
2022/07/19 02:16:48;;;;;;;6.68;4.30;;;19.80;76.90;;;;;;5011688;28;20453;-43
2022/07/19 02:19:15;;;;;;;8.30;4.80;;;19.70;77.20;;;;;;5011811;28;20537;-42
2022/07/19 02:21:42;;;;;;;10.45;4.38;;;19.70;78.10;;;;;;5011116;28;20057;-43
2022/07/19 02:24:09;;;;;;;9.55;4.72;;;19.70;77.50;;;;;;5011275;28;20109;-42
2022/07/19 02:26:36;;;;;;;9.98;4.60;;;19.60;77.60;;;;;;5010352;28;20053;-42
2022/07/19 02:29:03;;;;;;;5.35;4.35;;;19.60;77.70;;;;;;5012300;28;20495;-43
2022/07/19 02:31:31;;;;;;;8.48;5.10;;;19.60;77.70;;;;;;5022920;28;20080;-43
2022/07/19 02:33:58;;;;;;;14.13;5.32;;;19.60;77.60;;;;;;5011501;28;20053;-44
2022/07/19 02:36:24;;;;;;;6.85;4.60;;;19.50;77.80;;;;;;5009952;28;20073;-43
2022/07/19 02:38:51;;;;;;;9.10;5.68;;;19.50;77.80;;;;;;5011411;28;20136;-42
2022/07/19 02:41:18;;;;;;;10.57;5.22;;;19.50;78.00;;;;;;5010443;28;20537;-43
2022/07/19 02:43:45;;;;;;;6.07;4.10;;;19.50;78.20;;;;;;5011777;28;20085;-42
2022/07/19 02:46:11;;;;;;;6.45;4.82;;;19.50;78.10;;;;;;5014508;28;20085;-43
2022/07/19 02:48:40;;;;;;;9.73;4.70;;;19.40;78.20;;;;;;5016073;28;20111;-43
2022/07/19 02:51:10;;;;;;;7.40;4.70;;;19.40;78.00;;;;;;5015225;28;20562;-43
2022/07/19 02:53:37;;;;;;;11.07;5.00;;;19.40;78.20;;;;;;5015146;28;20089;-44
2022/07/19 02:56:04;;;;;;;9.65;5.22;;;19.30;78.00;;;;;;5012671;28;20082;-44
2022/07/19 02:58:31;;;;;;;7.70;4.35;;;19.30;78.50;;;;;;5015087;28;20133;-44
2022/07/19 03:00:58;;;;;;;8.32;4.63;;;19.30;78.20;;;;;;5013531;28;20133;-42
2022/07/19 03:06:10;;;;;;;9.55;5.28;;;19.30;78.30;;;;;;5016639;28;20054;-42
2022/07/19 03:08:37;;;;;;;10.20;5.15;;;19.20;78.50;;;;;;5014762;28;20140;-43
2022/07/19 03:11:04;;;;;;;9.43;5.20;;;19.20;78.70;;;;;;5015616;28;20108;-42
2022/07/19 03:13:31;;;;;;;9.60;5.32;;;19.20;78.70;;;;;;5013974;28;20086;-42
2022/07/19 03:15:58;;;;;;;12.43;5.13;;;19.20;78.70;;;;;;5013553;28;20464;-43
2022/07/19 03:18:24;;;;;;;10.40;5.28;;;19.20;78.60;;;;;;5020289;28;20446;-44
2022/07/19 03:20:51;;;;;;;9.10;4.93;;;19.10;78.40;;;;;;5014207;28;20125;-43
2022/07/19 03:23:19;;;;;;;11.73;5.70;;;19.10;78.20;;;;;;5014200;28;20430;-43
2022/07/19 03:25:46;;;;;;;10.13;5.18;;;19.10;78.70;;;;;;5014164;28;20053;-43
2022/07/19 03:28:13;;;;;;;10.13;5.93;;;19.10;79.30;;;;;;5015579;28;20050;-43
2022/07/19 03:30:40;;;;;;;6.93;4.93;;;19.10;79.50;;;;;;5014602;28;20077;-44
2022/07/19 03:33:06;;;;;;;7.80;4.90;;;19.00;79.60;;;;;;5022477;28;20072;-43
2022/07/19 03:35:33;;;;;;;10.90;5.38;;;19.00;79.60;;;;;;5014495;28;20057;-44
2022/07/19 03:38:00;;;;;;;6.97;4.75;;;19.00;79.60;;;;;;5014286;28;20405;-44
2022/07/19 03:40:28;;;;;;;9.60;5.22;;;19.00;79.30;;;;;;5013590;28;20129;-43
2022/07/19 03:42:58;;;;;;;8.70;5.63;;;18.90;79.30;;;;;;5013951;28;20716;-43
2022/07/19 03:45:25;;;;;;;9.77;5.40;;;18.90;79.20;;;;;;5013589;28;20129;-43
2022/07/19 03:47:52;;;;;;;7.25;4.40;;;18.90;79.60;;;;;;5026501;28;20045;-43
2022/07/19 03:50:18;;;;;;;10.02;5.07;;;18.90;79.30;;;;;;5014640;28;20132;-43
2022/07/19 03:52:45;;;;;;;10.10;6.25;;;18.90;79.40;;;;;;5012915;28;20089;-44
2022/07/19 03:55:12;;;;;;;7.82;5.47;;;18.90;79.00;;;;;;5008879;28;20074;-44
2022/07/19 03:57:40;;;;;;;10.70;6.80;;;18.90;79.40;;;;;;5012895;28;20137;-44
2022/07/19 04:00:07;;;;;;;12.82;6.47;;;18.90;80.10;;;;;;5021852;28;20121;-44
2022/07/19 04:02:34;;;;;;;9.25;5.68;;;18.80;80.50;;;;;;5010688;28;20050;-44
2022/07/19 04:05:01;;;;;;;7.80;5.80;;;18.80;80.30;;;;;;5013824;28;20797;-43
2022/07/19 04:07:28;;;;;;;9.38;5.78;;;18.80;79.80;;;;;;5012482;28;20077;-42
2022/07/19 04:09:55;;;;;;;8.25;5.63;;;18.80;80.10;;;;;;5014141;28;20101;-43
2022/07/19 04:12:21;;;;;;;7.55;5.80;;;18.80;79.70;;;;;;5014015;28;20120;-42
2022/07/19 04:14:49;;;;;;;8.40;5.55;;;18.80;79.80;;;;;;5013771;28;20092;-44
2022/07/19 04:17:17;;;;;;;7.80;5.30;;;18.80;79.90;;;;;;5026183;28;20149;-43
2022/07/19 04:19:43;;;;;;;9.07;6.15;;;18.80;79.90;;;;;;5010735;28;20049;-43
2022/07/19 04:22:10;;;;;;;8.35;4.97;;;18.80;80.00;;;;;;5012796;28;20120;-43
2022/07/19 04:24:37;;;;;;;11.07;5.55;;;18.80;80.80;;;;;;5011376;28;20564;-43
2022/07/19 04:27:04;;;;;;;10.55;6.38;;;18.80;80.30;;;;;;5011266;28;20053;-43
2022/07/19 04:29:31;;;;;;;7.45;5.15;;;18.90;81.20;;;;;;5014377;28;20049;-44
2022/07/19 04:31:59;;;;;;;11.32;6.03;;;18.90;80.60;;;;;;5013474;28;20081;-42
2022/07/19 04:34:26;;;;;;;13.07;5.68;;;18.80;80.80;;;;;;5014541;28;20446;-43
2022/07/19 04:36:52;;;;;;;7.55;5.57;;;18.80;80.60;;;;;;5012986;28;20045;-42
2022/07/19 04:39:19;;;;;;;11.05;6.50;;;18.80;80.90;;;;;;5012897;28;20467;-43
2022/07/19 04:41:46;;;;;;;13.00;5.32;;;18.80;81.50;;;;;;5013507;28;20121;-42
2022/07/19 04:44:13;;;;;;;8.25;5.82;;;18.90;81.70;;;;;;5013112;28;20131;-43
2022/07/19 04:46:39;;;;;;;8.30;5.70;;;18.90;81.60;;;;;;5014072;28;20481;-42
2022/07/19 04:49:07;;;;;;;10.23;5.95;;;18.90;82.00;;;;;;5010535;28;20073;-43
2022/07/19 04:51:34;;;;;;;11.57;5.93;;;18.90;82.40;;;;;;5013008;28;20081;-43
2022/07/19 04:54:01;;;;;;;9.07;5.60;;;18.90;82.40;;;;;;5012013;28;20542;-43
2022/07/19 04:56:28;;;;;;;9.07;5.20;;;18.90;82.10;;;;;;5013209;28;20164;-43
2022/07/19 04:58:54;;;;;;;9.35;6.60;;;18.90;81.70;;;;;;5013544;28;20111;-44
2022/07/19 05:01:21;;;;;;;14.15;6.95;;;18.90;82.30;;;;;;5009671;28;20070;-43
2022/07/19 05:03:48;;;;;;;12.85;6.15;;;19.00;82.60;;;;;;5012802;28;20129;-43
2022/07/19 05:06:16;;;;;;;10.82;6.55;;;19.00;82.60;;;;;;5012970;28;20050;-43
2022/07/19 05:08:43;;;;;;;9.60;5.40;;;19.00;82.10;;;;;;5012461;28;20438;-43
2022/07/19 05:11:10;;;;;;;16.92;7.07;;;19.00;81.60;;;;;;5011306;28;20073;-43
2022/07/19 05:13:36;;;;;;;11.70;8.45;;;19.00;82.50;;;;;;5011208;28;20128;-43
2022/07/19 05:16:03;;;;;;;17.25;8.77;;;19.10;83.00;;;;;;5012011;28;20133;-42
2022/07/19 05:18:30;;;;;;;13.77;7.70;;;19.10;83.30;;;;;;5011274;28;20084;-43
2022/07/19 05:20:57;;;;;;;11.30;7.15;;;19.20;83.30;;;;;;5011625;28;20216;-43
2022/07/19 05:23:25;;;;;;;14.32;7.40;;;19.20;83.20;;;;;;5013095;28;20077;-43
2022/07/19 05:25:52;;;;;;;12.90;7.20;;;19.30;83.30;;;;;;5010123;28;20088;-43
2022/07/19 05:28:18;;;;;;;18.77;7.68;;;19.30;83.60;;;;;;5011678;28;20096;-43
2022/07/19 05:30:45;;;;;;;17.25;7.13;;;19.40;83.50;;;;;;5013406;28;20129;-44
2022/07/19 05:33:12;;;;;;;15.52;7.28;;;19.50;83.30;;;;;;5013255;28;20520;-43
2022/07/19 05:35:39;;;;;;;14.35;7.35;;;19.50;83.20;;;;;;5012716;28;20050;-44
2022/07/19 05:38:05;;;;;;;14.82;7.00;;;19.60;83.20;;;;;;5011705;28;20095;-43
2022/07/19 05:40:33;;;;;;;15.00;7.25;;;19.70;82.90;;;;;;5009248;28;20741;-44
2022/07/19 05:43:01;;;;;;;14.98;7.45;;;19.80;82.70;;;;;;5006810;28;20577;-43
2022/07/19 05:45:28;;;;;;;15.30;7.20;;;19.90;82.70;;;;;;5008555;28;20064;-43
2022/07/19 05:47:55;;;;;;;15.88;7.13;;;20.00;82.80;;;;;;5011456;28;20044;-43
2022/07/19 05:50:22;;;;;;;14.27;7.78;;;20.10;83.10;;;;;;5008127;28;20498;-43
2022/07/19 05:52:49;;;;;;;18.70;8.02;;;20.20;82.80;;;;;;5010576;28;20665;-43
2022/07/19 05:55:16;;;;;;;16.50;8.07;;;20.30;82.70;;;;;;5010733;28;20472;-44
2022/07/19 05:57:44;;;;;;;11.95;7.40;;;20.40;82.60;;;;;;5000871;28;20339;-43
2022/07/19 06:00:11;;;;;;;15.45;7.82;;;20.50;82.50;;;;;;5009018;28;20092;-44
2022/07/19 06:02:38;;;;;;;12.90;7.45;;;20.60;82.00;;;;;;5004519;28;20132;-43
2022/07/19 06:05:06;;;;;;;17.80;6.90;;;20.70;81.90;;;;;;5006498;28;20650;-44
2022/07/19 06:07:32;;;;;;;13.35;6.88;;;20.80;81.90;;;;;;5010928;28;20076;-43
2022/07/19 06:10:01;;;;;;;16.45;7.50;;;21.00;81.80;;;;;;5011652;28;20054;-43
2022/07/19 06:12:28;;;;;;;21.98;7.82;;;21.10;81.50;;;;;;5011254;28;20045;-43
2022/07/19 06:14:56;;;;;;;13.02;6.95;;;21.20;81.40;;;;;;5008061;28;20088;-43
2022/07/19 06:17:23;;;;;;;15.30;7.05;;;21.30;81.10;;;;;;5000650;28;20553;-44
2022/07/19 06:19:50;;;;;;;14.60;6.90;;;21.40;80.70;;;;;;5013948;28;20046;-44
2022/07/19 06:22:16;;;;;;;18.58;7.82;;;21.60;80.60;;;;;;5014657;28;20082;-44
2022/07/19 06:24:43;;;;;;;17.45;7.25;;;21.70;80.50;;;;;;5012895;28;20580;-44
2022/07/19 06:27:10;;;;;;;12.18;6.50;;;21.80;80.60;;;;;;5015782;28;20125;-43
2022/07/19 06:29:37;;;;;;;21.48;8.35;;;22.00;80.70;;;;;;5014957;28;20141;-43
2022/07/19 06:32:05;;;;;;;15.38;7.38;;;22.10;80.40;;;;;;5012120;28;20133;-43
2022/07/19 06:34:32;;;;;;;24.17;7.80;;;22.30;80.20;;;;;;5012948;28;20113;-42
2022/07/19 06:36:59;;;;;;;13.63;7.35;;;22.40;80.30;;;;;;5014737;28;20054;-43
2022/07/19 06:39:25;;;;;;;14.63;7.85;;;22.50;80.00;;;;;;5015464;28;20133;-44
2022/07/19 06:41:52;;;;;;;16.80;7.63;;;22.60;79.30;;;;;;5013292;28;20128;-44
2022/07/19 06:44:19;;;;;;;9.90;7.18;;;22.80;79.30;;;;;;5011856;28;20090;-42
2022/07/19 06:46:46;;;;;;;13.63;7.18;;;22.90;78.90;;;;;;5013167;28;20081;-42
2022/07/19 06:49:14;;;;;;;11.88;6.22;;;23.00;79.10;;;;;;5014924;28;20054;-43
2022/07/19 06:51:41;;;;;;;12.52;6.40;;;23.20;79.10;;;;;;5014330;28;20136;-43
2022/07/19 06:54:08;;;;;;;15.38;7.28;;;23.30;79.30;;;;;;5013337;28;20053;-43
2022/07/19 06:56:35;;;;;;;22.10;7.90;;;23.50;79.30;;;;;;5014400;28;20088;-42
2022/07/19 06:59:02;;;;;;;17.23;7.70;;;23.60;79.00;;;;;;5013665;28;20077;-43
2022/07/19 07:01:28;;;;;;;18.58;8.23;;;23.80;79.30;;;;;;5013830;28;20060;-44
2022/07/19 07:03:55;;;;;;;11.93;7.55;;;23.90;78.80;;;;;;5013700;28;20049;-43
2022/07/19 07:06:24;;;;;;;19.63;8.45;;;24.10;78.50;;;;;;5015122;28;20132;-43
2022/07/19 07:08:50;;;;;;;13.30;8.20;;;24.30;78.00;;;;;;5013427;28;20081;-44
2022/07/19 07:11:17;;;;;;;10.40;7.25;;;24.40;77.50;;;;;;5013427;28;20129;-43
2022/07/19 07:13:44;;;;;;;14.23;8.00;;;24.50;77.40;;;;;;5011799;28;20050;-42
2022/07/19 07:16:11;;;;;;;11.88;6.68;;;24.60;76.70;;;;;;5009430;28;20060;-44
2022/07/19 07:18:38;;;;;;;14.05;6.93;;;24.80;76.60;;;;;;5012413;28;20413;-43
2022/07/19 07:21:05;;;;;;;18.30;6.45;;;24.90;76.80;;;;;;5014900;28;20467;-44
2022/07/19 07:23:33;;;;;;;13.77;6.95;;;25.10;76.50;;;;;;5013421;28;20054;-44
2022/07/19 07:26:00;;;;;;;19.45;6.85;;;25.30;76.20;;;;;;5011947;28;20068;-43
2022/07/19 07:28:27;;;;;;;14.80;6.47;;;25.50;75.50;;;;;;5014168;28;20101;-43
2022/07/19 07:30:54;;;;;;;12.80;6.40;;;25.60;74.80;;;;;;5013519;28;20092;-44
2022/07/19 07:33:21;;;;;;;10.45;6.50;;;25.80;74.30;;;;;;5012493;28;20057;-44
2022/07/19 07:35:47;;;;;;;9.73;6.40;;;25.90;73.70;;;;;;5012239;28;20128;-44
2022/07/19 07:38:14;;;;;;;15.40;5.88;;;25.90;73.80;;;;;;5012668;28;20563;-44
2022/07/19 07:40:42;;;;;;;9.52;6.18;;;26.10;73.80;;;;;;5013180;28;20572;-44
2022/07/19 07:43:09;;;;;;;12.45;6.00;;;26.30;73.90;;;;;;5010480;28;20148;-44
2022/07/19 07:45:36;;;;;;;11.07;6.30;;;26.40;73.90;;;;;;5011318;28;20120;-44
2022/07/19 07:48:03;;;;;;;11.63;5.50;;;26.50;73.60;;;;;;5009208;28;20057;-44
2022/07/19 07:50:29;;;;;;;16.67;5.80;;;26.70;72.60;;;;;;5012819;28;20141;-43
2022/07/19 07:52:56;;;;;;;10.82;5.35;;;26.90;72.80;;;;;;5010918;28;20128;-43
2022/07/19 07:55:23;;;;;;;9.85;5.30;;;27.00;72.20;;;;;;5009922;28;20073;-43
2022/07/19 07:57:51;;;;;;;8.77;5.05;;;27.20;72.00;;;;;;5013694;28;20454;-44
2022/07/19 08:00:18;;;;;;;14.75;5.68;;;27.40;71.80;;;;;;5013108;28;20479;-42
2022/07/19 08:02:46;;;;;;;8.48;4.50;;;27.50;71.80;;;;;;5011090;28;20101;-42
2022/07/19 08:05:12;;;;;;;10.45;4.78;;;27.70;71.60;;;;;;5013758;28;20487;-43
2022/07/19 08:07:39;;;;;;;9.45;4.57;;;27.90;70.70;;;;;;5010574;28;20116;-44
2022/07/19 08:10:07;;;;;;;10.93;5.20;;;28.00;70.60;;;;;;5013496;28;20049;-43
2022/07/19 08:12:34;;;;;;;8.95;4.40;;;28.20;70.00;;;;;;5011727;28;20100;-42
2022/07/19 08:15:02;;;;;;;14.20;4.15;;;28.30;69.90;;;;;;5013145;28;20085;-43
2022/07/19 08:17:29;;;;;;;11.95;4.07;;;28.50;68.20;;;;;;5012603;28;20054;-43
2022/07/19 08:19:56;;;;;;;12.70;4.10;;;28.70;67.50;;;;;;5012604;28;20076;-44
2022/07/19 08:22:22;;;;;;;9.93;4.25;;;28.80;66.80;;;;;;5013375;28;20045;-42
2022/07/19 08:24:49;;;;;;;7.43;3.70;;;28.90;65.40;;;;;;5012311;28;20093;-43
2022/07/19 08:27:16;;;;;;;10.68;3.45;;;29.00;65.00;;;;;;5011425;28;20056;-44
2022/07/19 08:29:43;;;;;;;9.02;3.78;;;29.20;64.00;;;;;;5013185;28;20081;-45
2022/07/19 08:32:11;;;;;;;9.50;3.45;;;29.30;63.20;;;;;;5009406;28;20054;-43
2022/07/19 08:34:38;;;;;;;10.32;3.92;;;29.50;63.50;;;;;;5010174;28;20196;-43
2022/07/19 08:37:04;;;;;;;6.07;3.30;;;29.60;64.10;;;;;;5010517;28;20100;-44
2022/07/19 08:39:31;;;;;;;9.00;3.63;;;29.80;63.20;;;;;;5011484;28;20050;-44
2022/07/19 08:41:58;;;;;;;10.63;3.22;;;29.90;63.30;;;;;;5009956;28;20399;-44
2022/07/19 08:44:24;;;;;;;6.43;3.25;;;30.10;63.00;;;;;;5011470;28;20449;-45
2022/07/19 08:46:51;;;;;;;5.70;2.75;;;30.30;62.30;;;;;;5011822;28;20433;-42
2022/07/19 08:49:20;;;;;;;4.20;2.47;;;30.40;60.80;;;;;;5009160;28;20068;-43
2022/07/19 08:51:47;;;;;;;11.18;3.38;;;30.60;60.00;;;;;;5012524;28;20133;-43
2022/07/19 08:54:14;;;;;;;8.88;2.95;;;30.70;59.20;;;;;;5012578;28;20081;-44
2022/07/19 08:59:25;;;;;;;7.65;2.33;;;31.00;58.00;;;;;;5011414;28;20050;-44
2022/07/19 09:01:52;;;;;;;7.88;2.53;;;31.10;56.60;;;;;;5013142;28;20439;-43
2022/07/19 09:04:21;;;;;;;5.82;2.38;;;31.20;57.00;;;;;;5012851;28;20098;-44
2022/07/19 09:06:48;;;;;;;11.05;2.67;;;31.40;57.20;;;;;;5011789;28;20049;-44
2022/07/19 09:09:16;;;;;;;8.80;2.40;;;31.60;56.70;;;;;;5011011;28;20479;-44
2022/07/19 09:11:50;;;;;;;8.02;2.47;;;31.80;56.60;;;;;;5010354;28;20552;-43
2022/07/19 09:14:18;;;;;;;11.02;2.75;;;31.90;56.60;;;;;;5018112;28;20456;-43
2022/07/19 09:17:01;;;;;;;6.05;2.80;;;32.00;57.10;;;;;;5016850;28;20494;-44
2022/07/19 09:19:30;;;;;;;5.65;2.47;;;32.20;55.70;;;;;;5011065;28;20060;-44
2022/07/19 09:21:59;;;;;;;5.28;2.33;;;32.40;55.40;;;;;;5009589;28;20054;-44
2022/07/19 09:24:26;;;;;;;11.38;2.70;;;32.50;56.00;;;;;;5011059;28;20525;-44
2022/07/19 09:27:00;;;;;;;5.47;2.35;;;32.60;54.10;;;;;;5012174;28;20064;-45
2022/07/19 09:29:28;;;;;;;7.15;2.60;;;32.80;52.90;;;;;;5012589;28;20050;-44
2022/07/19 09:32:05;;;;;;;6.72;2.20;;;32.80;53.20;;;;;;5009704;28;20052;-45
2022/07/19 09:34:33;;;;;;;7.47;3.05;;;33.00;53.60;;;;;;5012023;28;20145;-44
2022/07/19 09:37:14;;;;;;;5.25;2.67;;;33.10;53.10;;;;;;5011016;28;20066;-44
2022/07/19 09:39:41;;;;;;;5.30;2.58;;;33.30;53.50;;;;;;5011690;28;20569;-44
2022/07/19 09:42:08;;;;;;;10.68;2.38;;;33.30;53.80;;;;;;5010340;28;20163;-43
2022/07/19 09:44:35;;;;;;;5.90;2.20;;;33.40;53.90;;;;;;5010745;28;20077;-44
2022/07/19 09:47:02;;;;;;;6.18;2.72;;;33.50;50.90;;;;;;5011375;28;20540;-43
2022/07/19 09:49:29;;;;;;;5.00;2.13;;;33.50;50.50;;;;;;5012132;28;20089;-44
2022/07/19 09:51:57;;;;;;;7.55;2.67;;;33.60;50.80;;;;;;5012004;28;20046;-44
2022/07/19 09:54:25;;;;;;;7.63;2.38;;;33.70;50.50;;;;;;5008831;28;20100;-44
2022/07/19 09:56:52;;;;;;;11.20;2.40;;;33.80;48.70;;;;;;5008043;28;20050;-44
2022/07/19 09:59:20;;;;;;;8.95;2.45;;;33.80;48.90;;;;;;5010449;28;20135;-44
2022/07/19 10:01:48;;;;;;;7.55;2.40;;;33.90;48.30;;;;;;5006128;28;20133;-43
2022/07/19 10:04:39;;;;;;;10.20;2.50;;;34.00;48.10;;;;;;5011946;28;20149;-45
2022/07/19 10:07:07;;;;;;;3.58;2.40;;;34.10;47.70;;;;;;5003794;28;20081;-45
2022/07/19 10:09:34;;;;;;;5.93;2.30;;;34.10;47.70;;;;;;5011797;28;20085;-44
2022/07/19 10:12:01;;;;;;;7.95;2.38;;;34.20;47.70;;;;;;5011629;28;20061;-45
2022/07/19 10:14:27;;;;;;;12.82;2.60;;;34.40;49.40;;;;;;5010296;28;20537;-45
2022/07/19 10:17:03;;;;;;;5.10;2.50;;;34.50;49.10;;;;;;5012123;28;20116;-43
2022/07/19 10:19:35;;;;;;;9.63;2.50;;;34.60;49.10;;;;;;5011785;28;20136;-44
2022/07/19 10:22:02;;;;;;;7.97;2.60;;;34.80;49.00;;;;;;5010427;28;20100;-44
2022/07/19 10:24:53;;;;;;;10.57;2.45;;;34.90;48.40;;;;;;4999095;28;20089;-45
2022/07/19 10:27:36;;;;;;;8.85;2.50;;;35.10;48.90;;;;;;5008519;28;20068;-44
2022/07/19 10:30:20;;;;;;;8.43;2.55;;;35.20;47.40;;;;;;5003642;28;20053;-44
2022/07/19 10:32:47;;;;;;;11.73;2.83;;;35.30;44.60;;;;;;4994612;28;20565;-44
2022/07/19 10:35:18;;;;;;;8.48;2.25;;;35.30;44.80;;;;;;5009668;28;20084;-44
2022/07/19 10:37:46;;;;;;;5.78;2.30;;;35.50;45.00;;;;;;5010142;28;20486;-44
2022/07/19 10:40:14;;;;;;;7.55;2.45;;;35.50;45.10;;;;;;5006203;28;20082;-44
2022/07/19 10:43:05;;;;;;;11.30;2.70;;;35.60;44.70;;;;;;4991924;28;20054;-45
2022/07/19 10:45:32;;;;;;;5.43;2.10;;;35.70;44.80;;;;;;4992931;28;20502;-44
2022/07/19 10:48:21;;;;;;;6.47;2.38;;;35.70;44.30;;;;;;5003674;28;20108;-43
2022/07/19 10:50:58;;;;;;;6.57;2.25;;;35.90;44.30;;;;;;5011369;28;20074;-43
2022/07/19 10:53:59;;;;;;;7.68;2.38;;;36.00;44.40;;;;;;5012611;28;20061;-44
2022/07/19 10:56:29;;;;;;;7.03;2.17;;;36.10;44.00;;;;;;5011356;28;20065;-44
2022/07/19 10:58:57;;;;;;;9.27;2.30;;;36.20;43.60;;;;;;4992930;28;20055;-43
2022/07/19 11:01:24;;;;;;;9.73;2.50;;;36.20;43.60;;;;;;4993069;28;20082;-44
2022/07/19 11:03:52;;;;;;;9.45;2.40;;;36.30;43.20;;;;;;5008118;28;20166;-44
2022/07/19 11:06:23;;;;;;;5.60;2.30;;;36.30;43.40;;;;;;5012902;28;20533;-44
2022/07/19 11:08:53;;;;;;;7.63;2.40;;;36.50;43.20;;;;;;5012869;28;20041;-44
2022/07/19 11:11:20;;;;;;;8.00;2.10;;;36.50;43.70;;;;;;4997359;28;20139;-43
2022/07/19 11:13:48;;;;;;;7.70;2.35;;;36.60;44.40;;;;;;5010620;28;20057;-43
2022/07/19 11:16:15;;;;;;;9.00;2.65;;;36.70;43.10;;;;;;5010408;28;20104;-44
2022/07/19 11:18:43;;;;;;;6.47;2.00;;;36.70;42.90;;;;;;5012697;28;20135;-44
2022/07/19 11:21:13;;;;;;;14.70;2.90;;;36.80;43.70;;;;;;5014139;28;20409;-44
2022/07/19 11:23:39;;;;;;;7.93;2.40;;;36.80;42.60;;;;;;5013914;28;20054;-44
2022/07/19 11:26:08;;;;;;;8.82;2.38;;;36.90;42.80;;;;;;5015694;28;20137;-44
2022/07/19 11:28:35;;;;;;;5.15;2.10;;;37.00;42.30;;;;;;5013526;28;20046;-44
2022/07/19 11:31:12;;;;;;;5.95;2.35;;;37.00;42.10;;;;;;5012333;28;20050;-45
2022/07/19 11:33:39;;;;;;;6.40;2.28;;;37.00;41.60;;;;;;5006734;28;20051;-44
2022/07/19 11:36:07;;;;;;;6.80;2.40;;;37.00;42.20;;;;;;5009178;28;20586;-45
2022/07/19 11:38:38;;;;;;;6.32;2.63;;;37.10;41.50;;;;;;5012157;28;20124;-44
2022/07/19 11:41:09;;;;;;;10.60;2.90;;;37.20;41.40;;;;;;5014663;28;20081;-44
2022/07/19 11:43:36;;;;;;;7.28;2.67;;;37.20;41.40;;;;;;5010803;28;20406;-44
2022/07/19 11:46:04;;;;;;;6.60;2.40;;;37.20;41.50;;;;;;5011712;28;20532;-43
2022/07/19 11:48:31;;;;;;;8.45;2.38;;;37.30;41.50;;;;;;5013263;28;20116;-44
2022/07/19 11:51:02;;;;;;;7.47;2.28;;;37.40;41.90;;;;;;5011267;28;20082;-43
2022/07/19 11:53:28;;;;;;;5.35;2.20;;;37.60;41.90;;;;;;5009105;28;20054;-43
2022/07/19 11:55:56;;;;;;;10.05;2.50;;;37.80;41.30;;;;;;5012980;28;20058;-44
2022/07/19 11:58:22;;;;;;;7.22;2.20;;;37.80;41.40;;;;;;5010962;28;20049;-43
2022/07/19 12:00:49;;;;;;;5.82;2.13;;;37.90;41.60;;;;;;5010619;28;20133;-44
2022/07/19 12:03:18;;;;;;;7.72;2.40;;;38.00;41.40;;;;;;5013049;28;20053;-43
2022/07/19 12:05:56;;;;;;;7.30;2.35;;;38.10;40.90;;;;;;5012683;28;20505;-43
2022/07/19 12:08:23;;;;;;;4.68;2.20;;;38.30;40.40;;;;;;5010817;28;20398;-44
2022/07/19 12:10:50;;;;;;;7.32;2.20;;;38.20;40.40;;;;;;5007560;28;20136;-44
2022/07/19 12:13:29;;;;;;;5.78;2.35;;;38.30;40.10;;;;;;5010746;28;20065;-43
2022/07/19 12:15:56;;;;;;;7.22;2.50;;;38.40;38.70;;;;;;5012020;28;20077;-43
2022/07/19 12:18:43;;;;;;;6.55;2.17;;;38.30;38.70;;;;;;5013650;28;20129;-44
2022/07/19 12:21:24;;;;;;;6.55;2.17;;;38.40;39.70;;;;;;5010704;28;20060;-43
2022/07/19 12:24:14;;;;;;;8.45;2.08;;;38.50;38.50;;;;;;5009368;28;20058;-43
2022/07/19 12:26:41;;;;;;;4.10;2.20;;;38.50;38.60;;;;;;5010658;28;20402;-43
2022/07/19 12:29:19;;;;;;;10.18;2.10;;;38.40;38.60;;;;;;5011639;28;20537;-44
2022/07/19 12:31:45;;;;;;;4.28;1.50;;;38.50;38.70;;;;;;5009946;28;20129;-43
2022/07/19 12:34:14;;;;;;;7.80;1.63;;;38.50;38.10;;;;;;5010334;28;20493;-44
2022/07/19 12:36:40;;;;;;;6.68;2.20;;;38.50;38.30;;;;;;5008025;28;20601;-44
2022/07/19 12:39:17;;;;;;;5.38;2.08;;;38.70;38.40;;;;;;5009254;28;20453;-44
2022/07/19 12:41:54;;;;;;;12.15;2.08;;;38.80;37.10;;;;;;5008790;28;20108;-44
2022/07/19 12:44:20;;;;;;;5.40;2.20;;;38.80;37.50;;;;;;5012206;28;20104;-44
2022/07/19 12:46:47;;;;;;;7.68;1.60;;;38.80;38.20;;;;;;5010351;28;20094;-43
2022/07/19 12:49:15;;;;;;;6.40;2.08;;;38.90;38.80;;;;;;5001418;28;20058;-44
2022/07/19 12:51:43;;;;;;;5.55;2.40;;;39.10;37.50;;;;;;5010563;28;20085;-44
2022/07/19 12:54:10;;;;;;;6.53;2.17;;;39.10;37.50;;;;;;5012211;28;20418;-44